Time;durP1;ratioP1;P1;durP2;ratioP2;P2;SDS_P1;SDS_P2;PMS_P1;PMS_P2;Temp;Humidity;BMP_temperature;BMP_pressure;BME280_temperature;BME280_humidity;BME280_pressure;Samples;Min_cycle;Max_cycle;Signal;HPM_P1;HPM_P2
2022/08/01 11:00:22;;;;;;;5.70;3.75;;;33.90;55.30;;;;;;1973083;73;27504;-63
2022/08/01 11:03:03;;;;;;;5.50;3.55;;;33.50;56.60;;;;;;1948514;73;21047;-68
2022/08/01 11:05:34;;;;;;;5.03;3.25;;;33.30;55.60;;;;;;1910668;75;21105;-63
2022/08/01 11:08:12;;;;;;;5.92;2.90;;;33.20;55.20;;;;;;1876451;76;21112;-64
2022/08/01 11:10:46;;;;;;;4.17;2.90;;;33.00;54.70;;;;;;1874609;76;21576;-66
2022/08/01 11:13:15;;;;;;;7.50;3.23;;;32.90;54.80;;;;;;1876669;76;21050;-68
2022/08/01 11:15:45;;;;;;;5.10;3.40;;;32.80;55.30;;;;;;1876593;76;21010;-73
2022/08/01 11:18:32;;;;;;;4.40;3.08;;;32.80;55.60;;;;;;1876499;76;21128;-69
2022/08/01 11:21:03;;;;;;;5.85;3.40;;;32.80;55.20;;;;;;1876641;76;21082;-62
2022/08/01 11:23:35;;;;;;;6.42;3.65;;;32.90;55.90;;;;;;1876698;76;21129;-62
2022/08/01 11:26:07;;;;;;;4.65;3.17;;;33.00;55.90;;;;;;1869431;76;21552;-63
2022/08/01 11:28:36;;;;;;;4.83;2.75;;;33.20;55.80;;;;;;1917268;75;21023;-62
2022/08/01 11:31:15;;;;;;;4.45;3.05;;;33.30;55.10;;;;;;1917248;75;21019;-65
2022/08/01 11:33:49;;;;;;;5.65;2.50;;;33.40;55.20;;;;;;1917298;75;21054;-62
2022/08/01 11:36:22;;;;;;;5.28;3.67;;;33.50;55.50;;;;;;1917679;74;21018;-60
2022/08/01 11:39:15;;;;;;;4.73;4.00;;;33.60;55.00;;;;;;1917744;75;21062;-64
2022/08/01 11:41:41;;;;;;;4.12;3.67;;;33.60;54.60;;;;;;1915541;75;21050;-68
2022/08/01 11:44:13;;;;;;;4.53;3.33;;;33.70;54.50;;;;;;1917410;75;21022;-66
2022/08/01 11:46:59;;;;;;;4.12;3.20;;;33.80;54.80;;;;;;1917367;75;21039;-65
2022/08/01 11:49:34;;;;;;;4.50;3.08;;;33.90;54.50;;;;;;1917221;75;21080;-61
2022/08/01 11:52:11;;;;;;;5.62;3.08;;;33.90;54.40;;;;;;1917349;75;21098;-65
2022/08/01 11:54:43;;;;;;;5.87;3.40;;;34.00;54.60;;;;;;1917418;75;21136;-61
2022/08/01 11:57:20;;;;;;;4.50;3.40;;;34.10;54.30;;;;;;1917224;75;21356;-66
2022/08/01 11:59:52;;;;;;;7.72;3.52;;;34.20;54.00;;;;;;1917562;75;21155;-63
2022/08/01 12:02:27;;;;;;;4.85;3.08;;;34.30;54.00;;;;;;1910739;75;21104;-60
2022/08/01 12:05:02;;;;;;;6.00;4.00;;;34.30;53.70;;;;;;1910820;75;21027;-65
2022/08/01 12:07:32;;;;;;;4.85;3.00;;;34.20;53.50;;;;;;1910760;75;21508;-60
2022/08/01 12:10:10;;;;;;;5.92;3.67;;;34.10;53.40;;;;;;1910178;75;21030;-61
2022/08/01 12:12:45;;;;;;;7.78;3.65;;;34.10;53.70;;;;;;1909795;75;21514;-59
2022/08/01 12:15:15;;;;;;;9.63;3.20;;;34.10;54.20;;;;;;1909168;75;21576;-58
2022/08/01 12:17:46;;;;;;;2.98;2.67;;;34.10;54.50;;;;;;1908828;75;21070;-62
2022/08/01 12:20:16;;;;;;;9.80;3.98;;;34.10;53.80;;;;;;1926270;73;21016;-61
2022/08/01 12:22:46;;;;;;;6.97;3.92;;;34.00;53.50;;;;;;1884011;76;21038;-60
2022/08/01 12:25:17;;;;;;;5.78;3.30;;;34.00;53.40;;;;;;1884177;76;21120;-59
2022/08/01 12:27:48;;;;;;;5.35;3.12;;;33.90;53.20;;;;;;1884082;76;21034;-59
2022/08/01 12:30:28;;;;;;;5.00;3.15;;;33.80;53.10;;;;;;1883928;76;21089;-58
2022/08/01 12:33:07;;;;;;;5.10;3.20;;;33.70;53.20;;;;;;1872356;72;21179;-58
2022/08/01 12:35:38;;;;;;;3.30;3.00;;;33.60;53.20;;;;;;1957147;73;21061;-60
2022/08/01 12:38:26;;;;;;;6.10;3.12;;;33.60;53.20;;;;;;1957658;73;20982;-60
2022/08/01 12:40:56;;;;;;;7.45;3.15;;;33.60;53.30;;;;;;1957603;73;21092;-63
2022/08/01 12:43:26;;;;;;;4.28;2.75;;;33.60;53.40;;;;;;1957638;73;21046;-61
2022/08/01 12:45:56;;;;;;;3.17;2.75;;;33.50;53.30;;;;;;1957752;73;21096;-64
2022/08/01 12:48:26;;;;;;;5.30;3.17;;;33.40;53.50;;;;;;1957544;73;21061;-62
2022/08/01 12:50:57;;;;;;;5.60;3.40;;;33.40;53.40;;;;;;1957760;73;21026;-61
2022/08/01 12:53:27;;;;;;;4.78;3.00;;;33.40;53.40;;;;;;1957680;73;21042;-63
2022/08/01 12:55:57;;;;;;;3.83;3.17;;;33.40;53.90;;;;;;1957667;73;21109;-64
2022/08/01 12:58:34;;;;;;;4.25;2.72;;;33.40;53.90;;;;;;1957641;73;21041;-63
2022/08/01 13:01:08;;;;;;;7.10;3.30;;;33.30;54.10;;;;;;1957904;73;21091;-62
2022/08/01 13:03:38;;;;;;;12.95;3.52;;;33.30;54.10;;;;;;1957292;73;21080;-60
2022/08/01 13:06:15;;;;;;;11.53;3.75;;;33.30;52.60;;;;;;1957830;73;21083;-65
2022/08/01 13:08:44;;;;;;;7.67;2.98;;;33.20;52.00;;;;;;1957526;73;21076;-61
2022/08/01 13:11:16;;;;;;;4.05;3.10;;;33.10;52.00;;;;;;1957540;73;21046;-60
2022/08/01 13:13:49;;;;;;;5.95;3.02;;;33.00;52.70;;;;;;1957575;73;21104;-60
2022/08/01 13:16:20;;;;;;;3.40;3.10;;;32.90;53.00;;;;;;1957794;73;21100;-60
2022/08/01 13:18:52;;;;;;;8.50;3.40;;;32.80;53.00;;;;;;1957663;73;21069;-60
2022/08/01 13:21:23;;;;;;;6.10;3.40;;;32.70;53.10;;;;;;1957596;73;21018;-60
2022/08/01 13:24:14;;;;;;;4.83;2.87;;;32.60;53.40;;;;;;1956448;73;21002;-62
2022/08/01 13:26:45;;;;;;;4.97;2.85;;;32.60;54.00;;;;;;1957660;73;21077;-61
2022/08/01 13:29:17;;;;;;;6.17;3.02;;;32.50;54.30;;;;;;1957637;73;21074;-61
2022/08/01 13:31:47;;;;;;;5.03;2.77;;;32.50;54.40;;;;;;1957552;73;21018;-61
2022/08/01 13:34:17;;;;;;;3.52;2.80;;;32.40;54.40;;;;;;1957600;73;21042;-62
2022/08/01 13:36:46;;;;;;;9.48;3.33;;;32.40;54.60;;;;;;1957899;73;21076;-59
2022/08/01 13:42:04;;;;;;;6.22;2.92;;;32.30;55.00;;;;;;1958110;73;21030;-62
2022/08/01 13:44:33;;;;;;;5.67;2.98;;;32.30;55.10;;;;;;1958421;73;20986;-62
2022/08/01 13:47:04;;;;;;;5.60;3.45;;;32.20;55.30;;;;;;1958483;73;21076;-62
2022/08/01 13:49:33;;;;;;;3.40;2.90;;;32.20;55.70;;;;;;1958179;73;21014;-62
2022/08/01 13:52:03;;;;;;;5.85;3.05;;;32.20;56.00;;;;;;1958264;73;21010;-62
2022/08/01 13:54:33;;;;;;;3.25;2.95;;;32.10;56.30;;;;;;1958258;73;21088;-62
2022/08/01 13:57:02;;;;;;;6.97;3.17;;;32.10;56.30;;;;;;1958274;73;21075;-62
2022/08/01 13:59:31;;;;;;;4.55;2.52;;;32.10;56.30;;;;;;1958331;73;21071;-62
2022/08/01 14:02:01;;;;;;;7.17;4.20;;;32.00;56.30;;;;;;1958336;73;21019;-62
2022/08/01 14:04:30;;;;;;;6.28;3.15;;;32.00;56.40;;;;;;1958228;73;21073;-62
2022/08/01 14:07:00;;;;;;;3.52;3.05;;;32.00;56.60;;;;;;1958344;73;21065;-62
2022/08/01 14:09:29;;;;;;;9.70;3.65;;;32.00;56.90;;;;;;1958128;73;21041;-63
2022/08/01 14:11:59;;;;;;;4.72;3.45;;;32.00;56.60;;;;;;1958296;73;21073;-63
2022/08/01 14:14:28;;;;;;;6.45;2.83;;;32.00;56.60;;;;;;1958162;73;21084;-63
2022/08/01 14:16:58;;;;;;;3.27;2.77;;;31.90;56.40;;;;;;1958268;73;21099;-63
2022/08/01 14:19:27;;;;;;;3.92;3.12;;;31.90;56.50;;;;;;1958272;73;20986;-63
2022/08/01 14:21:56;;;;;;;7.22;3.52;;;31.90;56.70;;;;;;1958491;73;21498;-63
2022/08/01 14:24:26;;;;;;;5.78;2.85;;;31.80;56.80;;;;;;1958298;73;21010;-63
2022/08/01 14:26:56;;;;;;;3.75;3.10;;;31.80;57.00;;;;;;1958395;73;21018;-64
2022/08/01 14:29:25;;;;;;;3.98;3.15;;;31.80;57.10;;;;;;1958434;73;21018;-63
2022/08/01 14:31:55;;;;;;;5.00;3.35;;;31.80;57.30;;;;;;1958365;72;21100;-63
2022/08/01 14:34:25;;;;;;;5.90;3.45;;;31.80;57.70;;;;;;1958025;72;21029;-63
2022/08/01 14:36:54;;;;;;;3.77;2.70;;;31.80;57.90;;;;;;1958150;73;21006;-63
2022/08/01 14:39:24;;;;;;;4.53;3.08;;;31.80;58.00;;;;;;1958301;73;21526;-63
2022/08/01 14:41:53;;;;;;;3.25;2.92;;;31.80;58.10;;;;;;1958230;73;20986;-63
2022/08/01 14:44:23;;;;;;;4.80;3.02;;;31.80;58.10;;;;;;1958216;73;21018;-63
2022/08/01 14:46:52;;;;;;;6.20;3.22;;;31.80;58.00;;;;;;1958387;73;20994;-63
2022/08/01 14:49:21;;;;;;;3.90;3.10;;;31.80;58.10;;;;;;1958207;72;21022;-63
2022/08/01 14:51:51;;;;;;;4.40;3.62;;;31.90;58.30;;;;;;1958341;73;21030;-63
2022/08/01 14:54:20;;;;;;;3.95;3.30;;;31.90;58.70;;;;;;1958306;72;21024;-64
2022/08/01 14:56:51;;;;;;;10.18;3.77;;;31.90;59.20;;;;;;1958324;73;21061;-64
2022/08/01 14:59:20;;;;;;;7.58;4.08;;;31.90;59.60;;;;;;1958197;73;21010;-63
2022/08/01 15:01:50;;;;;;;8.43;3.58;;;31.90;59.90;;;;;;1958265;73;21042;-63
2022/08/01 15:04:20;;;;;;;4.70;3.85;;;31.90;60.10;;;;;;1958161;73;21074;-63
2022/08/01 15:06:49;;;;;;;4.60;3.30;;;31.80;60.20;;;;;;1958276;72;21018;-63
2022/08/01 15:09:18;;;;;;;5.50;3.60;;;31.80;60.30;;;;;;1958194;73;21061;-63
2022/08/01 15:11:48;;;;;;;4.00;3.60;;;31.80;60.40;;;;;;1958268;73;21143;-63
2022/08/01 15:17:07;;;;;;;3.30;3.00;;;31.70;60.70;;;;;;1958182;73;21088;-63
2022/08/01 15:19:37;;;;;;;4.62;3.00;;;31.70;60.60;;;;;;1958333;73;21034;-64
2022/08/01 15:22:06;;;;;;;4.80;3.45;;;31.70;60.70;;;;;;1958248;73;21079;-63
2022/08/01 15:24:36;;;;;;;6.83;3.70;;;31.70;60.80;;;;;;1958178;73;21084;-63
2022/08/01 15:27:06;;;;;;;5.78;3.20;;;31.60;60.80;;;;;;1958299;73;21456;-63
2022/08/01 15:29:35;;;;;;;3.50;3.12;;;31.60;60.70;;;;;;1958193;73;21025;-64
2022/08/01 15:32:06;;;;;;;4.08;3.27;;;31.50;60.70;;;;;;1958270;72;21056;-63
2022/08/01 15:34:36;;;;;;;6.15;3.30;;;31.50;60.90;;;;;;1958128;73;21116;-63
2022/08/01 15:37:06;;;;;;;5.03;2.72;;;31.50;61.00;;;;;;1958134;73;21080;-63
2022/08/01 15:39:41;;;;;;;3.90;3.33;;;31.60;61.20;;;;;;1958159;72;21010;-63
2022/08/01 15:42:17;;;;;;;6.03;3.98;;;31.60;61.30;;;;;;1971272;72;21147;-62
2022/08/01 15:44:47;;;;;;;5.60;3.42;;;31.60;61.30;;;;;;1978093;72;21046;-61
2022/08/01 15:47:16;;;;;;;6.17;4.75;;;31.60;61.50;;;;;;1978161;72;21038;-62
2022/08/01 15:49:45;;;;;;;7.45;3.98;;;31.60;61.40;;;;;;1978255;72;20987;-62
2022/08/01 15:52:15;;;;;;;5.35;3.85;;;31.60;61.40;;;;;;1978214;72;21007;-62
2022/08/01 15:54:44;;;;;;;5.03;3.65;;;31.60;61.50;;;;;;1978270;72;21068;-61
2022/08/01 15:57:13;;;;;;;5.20;3.02;;;31.60;61.50;;;;;;1978256;72;20987;-62
2022/08/01 15:59:42;;;;;;;4.87;3.55;;;31.50;61.50;;;;;;1978164;72;21414;-62
2022/08/01 16:02:13;;;;;;;3.75;2.90;;;31.50;61.70;;;;;;1978197;72;21057;-62
2022/08/01 16:04:42;;;;;;;4.42;3.12;;;31.40;61.90;;;;;;1978304;72;21015;-61
2022/08/01 16:07:12;;;;;;;6.42;3.30;;;31.40;62.20;;;;;;1978276;72;21088;-62
2022/08/01 16:09:41;;;;;;;7.17;3.87;;;31.40;62.20;;;;;;1978126;72;21022;-62
2022/08/01 16:12:11;;;;;;;7.00;3.87;;;31.40;62.30;;;;;;1978088;72;21003;-62
2022/08/01 16:14:40;;;;;;;8.50;3.58;;;31.40;62.20;;;;;;1978227;72;21042;-62
2022/08/01 16:17:10;;;;;;;4.12;3.15;;;31.40;62.20;;;;;;1978148;72;21004;-61
2022/08/01 16:19:39;;;;;;;4.85;3.60;;;31.30;62.40;;;;;;1978207;72;21015;-61
2022/08/01 16:22:09;;;;;;;4.10;3.30;;;31.20;62.60;;;;;;1978159;72;21076;-62
2022/08/01 16:24:38;;;;;;;7.90;4.05;;;31.20;62.90;;;;;;1978384;71;20978;-62
2022/08/01 16:27:08;;;;;;;5.05;3.50;;;31.10;63.10;;;;;;1978200;72;21046;-62
2022/08/01 16:29:37;;;;;;;4.35;3.10;;;31.00;63.30;;;;;;1978123;72;21030;-62
2022/08/01 16:32:07;;;;;;;3.42;3.12;;;31.00;63.70;;;;;;1978155;72;21011;-62
2022/08/01 16:34:36;;;;;;;7.62;3.17;;;30.90;64.10;;;;;;1978195;72;20991;-62
2022/08/01 16:37:06;;;;;;;5.10;3.80;;;30.80;64.50;;;;;;1978120;72;21007;-62
2022/08/01 16:39:35;;;;;;;4.92;3.65;;;30.70;65.00;;;;;;1978388;72;20998;-63
2022/08/01 16:42:05;;;;;;;5.40;3.47;;;30.60;65.70;;;;;;1980569;71;21038;-62
2022/08/01 16:44:34;;;;;;;4.55;3.52;;;30.40;66.00;;;;;;1981886;72;21047;-62
2022/08/01 16:47:04;;;;;;;5.30;3.62;;;30.30;66.50;;;;;;1982018;72;21038;-62
2022/08/01 16:49:33;;;;;;;5.28;4.05;;;30.20;66.80;;;;;;1981854;72;21014;-61
2022/08/01 16:52:03;;;;;;;9.70;4.65;;;30.10;67.10;;;;;;1981908;72;20982;-62
2022/08/01 16:54:33;;;;;;;5.20;3.90;;;30.10;67.60;;;;;;1981969;72;21070;-62
2022/08/01 16:57:02;;;;;;;4.58;3.77;;;30.00;67.80;;;;;;1981867;72;21052;-62
2022/08/01 16:59:32;;;;;;;4.08;3.60;;;30.00;68.00;;;;;;1982030;71;21048;-62
2022/08/01 17:02:01;;;;;;;5.40;3.60;;;29.90;68.20;;;;;;1981997;72;21064;-62
2022/08/01 17:04:31;;;;;;;4.75;3.83;;;29.90;68.10;;;;;;1982017;72;21065;-62
2022/08/01 17:07:00;;;;;;;5.47;4.08;;;29.80;68.40;;;;;;1981967;72;20991;-61
2022/08/01 17:09:30;;;;;;;5.58;3.80;;;29.80;68.60;;;;;;1981797;72;21044;-62
2022/08/01 17:11:59;;;;;;;4.70;4.30;;;29.80;68.70;;;;;;1981912;72;21010;-62
2022/08/01 17:14:30;;;;;;;6.08;4.20;;;29.80;68.70;;;;;;1981986;72;21084;-62
2022/08/01 17:16:59;;;;;;;5.60;4.35;;;29.70;68.60;;;;;;1981950;72;21108;-62
2022/08/01 17:19:29;;;;;;;6.45;4.55;;;29.70;68.60;;;;;;1981930;72;20979;-62
2022/08/01 17:21:58;;;;;;;7.22;4.50;;;29.70;68.80;;;;;;1981887;72;21095;-63
2022/08/01 17:24:27;;;;;;;7.92;4.72;;;29.60;68.70;;;;;;1981771;72;21050;-62
2022/08/01 17:26:57;;;;;;;7.90;5.22;;;29.60;68.90;;;;;;1981774;72;21064;-63
2022/08/01 17:29:26;;;;;;;9.65;5.40;;;29.50;69.00;;;;;;1981856;72;21070;-63
2022/08/01 17:31:55;;;;;;;10.40;4.85;;;29.50;69.30;;;;;;1981739;72;21068;-62
2022/08/01 17:34:25;;;;;;;8.85;4.72;;;29.40;69.60;;;;;;1981915;72;21031;-62
2022/08/01 17:36:54;;;;;;;10.35;5.72;;;29.40;69.80;;;;;;1981963;72;20995;-62
2022/08/01 17:39:24;;;;;;;6.17;5.00;;;29.30;69.90;;;;;;1981865;72;21007;-63
2022/08/01 17:41:53;;;;;;;5.72;4.28;;;29.20;69.90;;;;;;1981816;71;21038;-62
2022/08/01 17:44:25;;;;;;;7.35;4.70;;;29.20;70.10;;;;;;1982018;72;20990;-62
2022/08/01 17:46:54;;;;;;;10.53;5.15;;;29.20;70.30;;;;;;1981855;72;20996;-62
2022/08/01 17:49:24;;;;;;;6.15;4.50;;;29.10;70.40;;;;;;1981942;71;21492;-62
2022/08/01 17:51:54;;;;;;;22.62;5.78;;;29.10;70.50;;;;;;1981905;72;21006;-62
2022/08/01 17:54:23;;;;;;;6.45;4.55;;;29.10;70.70;;;;;;1981966;72;21011;-62
2022/08/01 17:56:52;;;;;;;5.00;4.55;;;29.10;70.60;;;;;;1981969;72;21009;-62
2022/08/01 17:59:22;;;;;;;7.35;4.25;;;29.10;70.70;;;;;;1981888;72;21014;-62
2022/08/01 18:01:51;;;;;;;7.72;5.35;;;29.10;70.60;;;;;;1981822;72;21057;-62
2022/08/01 18:04:26;;;;;;;6.65;4.90;;;29.10;71.30;;;;;;1981974;71;21092;-62
2022/08/01 18:06:57;;;;;;;5.35;4.05;;;29.00;70.80;;;;;;1919055;70;21052;-62
2022/08/01 18:09:31;;;;;;;15.60;5.05;;;29.00;71.10;;;;;;1900410;75;21075;-62
2022/08/01 18:11:59;;;;;;;9.23;5.37;;;28.90;71.20;;;;;;1900149;75;21024;-62
2022/08/01 18:14:28;;;;;;;8.80;4.22;;;28.80;71.50;;;;;;1900359;75;21068;-62
2022/08/01 18:16:58;;;;;;;6.28;4.20;;;28.60;71.70;;;;;;1900452;75;20984;-62
2022/08/01 18:19:27;;;;;;;5.90;4.17;;;28.60;72.00;;;;;;1900468;75;20985;-62
2022/08/01 18:21:57;;;;;;;6.45;4.53;;;28.60;72.20;;;;;;1900469;75;21100;-62
2022/08/01 18:24:26;;;;;;;5.70;4.10;;;28.50;72.30;;;;;;1900283;75;21090;-62
2022/08/01 18:26:57;;;;;;;5.50;3.90;;;28.50;72.30;;;;;;1900350;75;20993;-62
2022/08/01 18:29:27;;;;;;;5.67;3.85;;;28.50;72.50;;;;;;1900326;75;21509;-62
2022/08/01 18:32:01;;;;;;;4.87;3.90;;;28.40;72.60;;;;;;1900385;75;21082;-62
2022/08/01 18:34:28;;;;;;;5.70;4.47;;;28.40;72.90;;;;;;1900057;75;21033;-62
2022/08/01 18:36:57;;;;;;;4.40;4.00;;;28.30;72.80;;;;;;1900280;75;21013;-62
2022/08/01 18:39:27;;;;;;;3.95;3.65;;;28.30;72.80;;;;;;1900456;75;21019;-62
2022/08/01 18:41:58;;;;;;;4.53;3.98;;;28.30;72.60;;;;;;1900234;75;21022;-62
2022/08/01 18:44:28;;;;;;;8.45;4.42;;;28.30;72.50;;;;;;1900388;75;21022;-62
2022/08/01 18:46:58;;;;;;;5.17;4.00;;;28.30;72.50;;;;;;1900387;75;20979;-62
2022/08/01 18:49:27;;;;;;;4.17;3.72;;;28.30;72.50;;;;;;1900238;75;21014;-62
2022/08/01 18:51:57;;;;;;;5.40;4.67;;;28.20;72.40;;;;;;1900292;75;20990;-62
2022/08/01 18:54:26;;;;;;;6.83;4.33;;;28.20;72.40;;;;;;1900421;75;21034;-62
2022/08/01 18:56:56;;;;;;;5.55;3.90;;;28.20;72.50;;;;;;1900349;75;21087;-62
2022/08/01 18:59:25;;;;;;;7.08;4.20;;;28.20;72.40;;;;;;1900494;75;21084;-62
2022/08/01 19:01:54;;;;;;;9.80;4.78;;;28.10;72.50;;;;;;1900286;75;21006;-62
2022/08/01 19:04:24;;;;;;;6.70;4.50;;;28.10;72.60;;;;;;1900295;75;21076;-62
2022/08/01 19:06:54;;;;;;;7.53;4.40;;;28.10;72.60;;;;;;1901998;75;21050;-62
2022/08/01 19:09:23;;;;;;;6.50;4.40;;;28.10;72.60;;;;;;1903756;75;21010;-62
2022/08/01 19:11:53;;;;;;;5.25;4.47;;;28.10;72.80;;;;;;1903699;75;21029;-62
2022/08/01 19:14:22;;;;;;;6.25;4.70;;;28.10;72.90;;;;;;1903736;75;21062;-62
2022/08/01 19:16:52;;;;;;;7.42;4.85;;;28.10;73.20;;;;;;1903841;75;21006;-63
2022/08/01 19:19:21;;;;;;;5.12;4.30;;;28.10;73.30;;;;;;1903865;75;21006;-62
2022/08/01 19:21:50;;;;;;;7.60;4.80;;;28.00;73.50;;;;;;1903942;75;21053;-62
2022/08/01 19:24:20;;;;;;;4.75;4.35;;;28.00;73.60;;;;;;1903854;75;21060;-62
2022/08/01 19:26:52;;;;;;;5.65;3.50;;;28.00;73.80;;;;;;1903912;75;21104;-62
2022/08/01 19:29:23;;;;;;;5.70;4.22;;;27.90;73.70;;;;;;1904004;75;21080;-62
2022/08/01 19:31:53;;;;;;;7.72;3.72;;;27.90;73.80;;;;;;1902538;75;21115;-62
2022/08/01 19:34:24;;;;;;;6.45;4.28;;;27.90;74.00;;;;;;1904017;75;21155;-62
2022/08/01 19:36:56;;;;;;;5.30;4.80;;;27.80;74.10;;;;;;1903865;75;21026;-62
2022/08/01 19:39:27;;;;;;;4.72;4.12;;;27.80;74.30;;;;;;1903851;75;21063;-62
2022/08/01 19:41:58;;;;;;;4.67;3.85;;;27.70;74.40;;;;;;1903834;75;20986;-63
2022/08/01 19:44:28;;;;;;;4.67;4.08;;;27.70;74.60;;;;;;1903892;75;21081;-63
2022/08/01 19:46:58;;;;;;;5.05;3.83;;;27.60;74.70;;;;;;1903960;75;21010;-63
2022/08/01 19:49:27;;;;;;;5.10;4.12;;;27.60;74.80;;;;;;1904037;75;21072;-63
2022/08/01 19:52:01;;;;;;;4.33;3.85;;;27.60;75.00;;;;;;1903989;75;21071;-63
2022/08/01 19:54:39;;;;;;;5.05;4.03;;;27.60;75.10;;;;;;1904141;75;21072;-64
2022/08/01 19:57:10;;;;;;;4.47;4.08;;;27.60;75.20;;;;;;1904115;75;21087;-64
2022/08/01 19:59:39;;;;;;;4.47;3.87;;;27.60;75.30;;;;;;1904097;75;21026;-64
2022/08/01 20:02:09;;;;;;;8.25;3.87;;;27.60;75.50;;;;;;1903969;75;21002;-64
2022/08/01 20:04:38;;;;;;;7.87;4.60;;;27.50;75.70;;;;;;1903897;75;20994;-64
2022/08/01 20:07:08;;;;;;;4.40;4.00;;;27.50;75.70;;;;;;1902853;75;21103;-64
2022/08/01 20:09:40;;;;;;;4.10;3.70;;;27.50;76.00;;;;;;1900363;75;21408;-65
2022/08/01 20:12:10;;;;;;;4.33;3.92;;;27.40;75.90;;;;;;1900512;75;21080;-64
2022/08/01 20:14:42;;;;;;;4.85;4.37;;;27.50;75.90;;;;;;1900486;75;21174;-64
2022/08/01 20:17:11;;;;;;;5.20;4.40;;;27.40;75.90;;;;;;1900447;75;21097;-64
2022/08/01 20:19:40;;;;;;;5.03;3.83;;;27.50;75.80;;;;;;1900452;75;21064;-64
2022/08/01 20:22:10;;;;;;;4.70;3.83;;;27.50;75.80;;;;;;1900492;75;20990;-64
2022/08/01 20:24:42;;;;;;;4.20;3.55;;;27.50;75.70;;;;;;1900494;75;21030;-64
2022/08/01 20:27:14;;;;;;;6.42;3.85;;;27.50;75.50;;;;;;1900508;75;21079;-64
2022/08/01 20:29:46;;;;;;;4.42;3.58;;;27.50;75.50;;;;;;1900475;75;21005;-64
2022/08/01 20:35:46;;;;;;;3.77;3.47;;;27.40;75.30;;;;;;1865467;77;21067;-65
2022/08/01 20:38:17;;;;;;;3.42;3.12;;;27.40;75.30;;;;;;1865598;77;21004;-65
2022/08/01 20:40:48;;;;;;;4.53;3.65;;;27.40;75.30;;;;;;1865471;77;21086;-65
2022/08/01 20:43:24;;;;;;;5.60;3.77;;;27.40;75.40;;;;;;1865470;77;20972;-65
2022/08/01 20:45:50;;;;;;;7.10;3.70;;;27.30;75.40;;;;;;1864703;77;20992;-65
2022/08/01 20:48:20;;;;;;;4.50;3.50;;;27.30;75.40;;;;;;1865332;77;21004;-64
2022/08/01 20:53:40;;;;;;;3.72;3.42;;;27.30;76.00;;;;;;1865453;77;21145;-65
2022/08/01 20:56:19;;;;;;;4.95;3.75;;;27.30;75.40;;;;;;1865592;77;21004;-65
2022/08/01 20:59:19;;;;;;;6.33;3.75;;;27.30;75.40;;;;;;1864210;77;21083;-65
2022/08/01 21:02:07;;;;;;;4.97;3.58;;;27.20;75.40;;;;;;1865461;77;21079;-65
2022/08/01 21:04:45;;;;;;;4.10;3.35;;;27.20;75.40;;;;;;1865372;77;21102;-65
2022/08/01 21:07:20;;;;;;;3.62;3.33;;;27.20;75.40;;;;;;1865262;77;21418;-65
2022/08/01 21:10:07;;;;;;;4.78;4.35;;;27.20;75.50;;;;;;1865456;77;21111;-65
2022/08/01 21:12:45;;;;;;;5.10;4.03;;;27.20;75.60;;;;;;1865429;77;21032;-65
2022/08/01 21:15:26;;;;;;;3.95;3.58;;;27.20;75.70;;;;;;1865467;77;21023;-65
2022/08/01 21:18:14;;;;;;;4.28;3.58;;;27.20;75.90;;;;;;1865500;77;21008;-65
2022/08/01 21:20:45;;;;;;;3.80;3.50;;;27.20;75.90;;;;;;1865333;77;21512;-65
2022/08/01 21:23:33;;;;;;;5.05;4.00;;;27.20;76.10;;;;;;1865332;76;21474;-65
2022/08/01 21:26:04;;;;;;;4.47;3.95;;;27.10;76.10;;;;;;1865437;77;21028;-65
2022/08/01 21:28:34;;;;;;;4.08;3.70;;;27.10;76.10;;;;;;1865321;77;21016;-65
2022/08/01 21:31:05;;;;;;;4.72;4.33;;;27.10;76.10;;;;;;1865358;77;21012;-65
2022/08/01 21:33:36;;;;;;;4.20;3.90;;;27.20;76.20;;;;;;1865423;77;21086;-65
2022/08/01 21:36:06;;;;;;;5.05;3.40;;;27.20;76.20;;;;;;1851884;77;21074;-65
2022/08/01 21:38:38;;;;;;;4.08;3.75;;;27.20;76.20;;;;;;1905198;75;21433;-65
2022/08/01 21:41:08;;;;;;;4.33;3.92;;;27.20;76.30;;;;;;1905041;75;21018;-65
2022/08/01 21:43:38;;;;;;;5.30;4.10;;;27.20;76.50;;;;;;1905042;75;21045;-65
2022/08/01 21:46:08;;;;;;;5.15;4.55;;;27.10;76.50;;;;;;1905185;75;20987;-65
2022/08/01 21:48:38;;;;;;;4.40;4.00;;;27.10;76.60;;;;;;1905014;75;20994;-65
2022/08/01 21:51:19;;;;;;;5.17;4.60;;;27.20;76.70;;;;;;1905066;75;20987;-65
2022/08/01 21:54:15;;;;;;;4.22;3.77;;;27.20;76.70;;;;;;1904779;75;21397;-65
2022/08/01 21:57:05;;;;;;;5.47;4.17;;;27.20;76.70;;;;;;1844182;75;21003;-65
2022/08/01 22:00:01;;;;;;;4.17;3.60;;;27.20;76.70;;;;;;1905145;75;21475;-65
2022/08/01 22:02:46;;;;;;;4.10;3.70;;;27.20;76.90;;;;;;1904980;75;21009;-66
2022/08/01 22:05:16;;;;;;;5.47;4.10;;;27.10;76.70;;;;;;1904924;75;21393;-65
2022/08/01 22:07:55;;;;;;;4.87;3.92;;;27.10;76.80;;;;;;1905180;75;21101;-65
2022/08/01 22:10:25;;;;;;;4.37;4.00;;;27.10;77.00;;;;;;1905168;75;21003;-66
2022/08/01 22:12:55;;;;;;;4.60;4.20;;;27.10;76.90;;;;;;1905175;75;20987;-65
2022/08/01 22:15:26;;;;;;;4.33;3.92;;;27.10;77.00;;;;;;1905094;75;21078;-66
2022/08/01 22:17:56;;;;;;;4.70;4.30;;;27.10;77.00;;;;;;1905117;75;20974;-65
2022/08/01 22:20:27;;;;;;;4.62;4.08;;;27.10;77.00;;;;;;1905157;75;20987;-65
2022/08/01 22:22:57;;;;;;;4.65;4.25;;;27.10;77.10;;;;;;1905138;75;20978;-66
2022/08/01 22:25:28;;;;;;;5.58;4.12;;;27.10;77.10;;;;;;1905023;75;20998;-65
2022/08/01 22:27:58;;;;;;;4.75;3.90;;;27.10;77.10;;;;;;1905051;75;21394;-66
2022/08/01 22:30:28;;;;;;;4.35;3.95;;;27.00;77.10;;;;;;1905078;75;20990;-66
2022/08/01 22:32:58;;;;;;;4.17;3.75;;;27.00;77.10;;;;;;1905179;75;20998;-66
2022/08/01 22:35:29;;;;;;;7.30;4.05;;;27.00;77.10;;;;;;1904980;75;21022;-65
2022/08/01 22:37:58;;;;;;;7.45;4.33;;;27.00;77.10;;;;;;1905103;75;21405;-66
2022/08/01 22:40:29;;;;;;;5.00;3.92;;;27.00;77.20;;;;;;1905012;75;20982;-65
2022/08/01 22:43:01;;;;;;;6.33;4.70;;;27.00;77.10;;;;;;1905042;75;21076;-65
2022/08/01 22:45:39;;;;;;;4.58;4.05;;;27.00;77.10;;;;;;1905157;75;21522;-65
2022/08/01 22:48:20;;;;;;;4.30;3.85;;;27.00;77.10;;;;;;1904956;75;21023;-66
2022/08/01 22:51:03;;;;;;;5.00;4.28;;;27.00;77.00;;;;;;1905149;75;21018;-65
2022/08/01 22:53:52;;;;;;;4.62;4.05;;;27.00;77.00;;;;;;1905252;75;20974;-66
2022/08/01 22:56:22;;;;;;;4.72;4.33;;;27.00;77.00;;;;;;1905198;75;21386;-65
2022/08/01 22:58:53;;;;;;;4.85;4.35;;;26.90;76.90;;;;;;1905156;75;21002;-65
2022/08/01 23:01:24;;;;;;;5.10;3.75;;;26.90;77.00;;;;;;1905130;75;21076;-65
2022/08/01 23:03:56;;;;;;;5.80;4.30;;;26.90;77.00;;;;;;1905069;75;21447;-66
2022/08/01 23:06:28;;;;;;;5.33;4.10;;;26.90;77.00;;;;;;1905243;75;21503;-65
2022/08/01 23:09:00;;;;;;;4.60;4.20;;;26.90;77.00;;;;;;1901147;75;21006;-65
2022/08/01 23:11:30;;;;;;;4.50;4.10;;;26.90;77.00;;;;;;1905248;75;20991;-65
2022/08/01 23:14:01;;;;;;;4.65;4.35;;;26.90;77.00;;;;;;1905196;75;21026;-66
2022/08/01 23:16:31;;;;;;;4.22;3.80;;;26.90;77.00;;;;;;1905339;75;21072;-65
2022/08/01 23:19:00;;;;;;;4.85;4.33;;;26.90;77.10;;;;;;1905253;75;21115;-65
2022/08/01 23:21:31;;;;;;;4.80;4.28;;;26.90;77.00;;;;;;1905108;75;21029;-65
2022/08/01 23:24:01;;;;;;;4.65;4.22;;;26.90;77.00;;;;;;1905160;75;21103;-65
2022/08/01 23:26:32;;;;;;;6.33;4.00;;;26.90;77.00;;;;;;1905072;75;21064;-65
2022/08/01 23:29:01;;;;;;;9.48;4.45;;;26.90;77.00;;;;;;1904995;75;20986;-65
2022/08/01 23:31:31;;;;;;;4.90;4.45;;;26.90;77.00;;;;;;1905003;75;21079;-65
2022/08/01 23:34:00;;;;;;;6.45;3.98;;;26.90;77.00;;;;;;1905040;75;21010;-65
2022/08/01 23:36:30;;;;;;;4.37;4.00;;;26.90;77.10;;;;;;1912766;74;21085;-65
2022/08/01 23:38:59;;;;;;;4.78;4.10;;;26.90;77.10;;;;;;1917357;75;21079;-65
2022/08/01 23:41:29;;;;;;;6.55;4.50;;;26.80;77.10;;;;;;1917442;75;21456;-65
2022/08/01 23:43:58;;;;;;;5.58;4.50;;;26.80;77.20;;;;;;1917440;74;21010;-65
2022/08/01 23:46:27;;;;;;;4.37;3.98;;;26.80;77.20;;;;;;1917301;74;20994;-65
2022/08/01 23:48:56;;;;;;;6.90;4.28;;;26.80;77.30;;;;;;1917294;75;21498;-65
2022/08/01 23:51:26;;;;;;;5.35;4.10;;;26.80;77.30;;;;;;1917318;75;21006;-65
2022/08/01 23:53:55;;;;;;;5.60;4.60;;;26.80;77.30;;;;;;1917435;75;21087;-65
2022/08/01 23:56:25;;;;;;;5.22;4.83;;;26.80;77.30;;;;;;1917429;74;21006;-65
2022/08/01 23:58:54;;;;;;;4.87;4.22;;;26.80;77.40;;;;;;1917471;75;20978;-65
